createdAt,value
2023-04-30T00:00:11.989Z,10.72
2023-04-30T00:05:38.647Z,10.72
2023-04-30T00:10:44.373Z,10.69
2023-04-30T00:15:49.986Z,10.67
2023-04-30T00:20:55.628Z,10.69
2023-04-30T00:26:01.932Z,10.68
2023-04-30T00:31:09.347Z,10.77
2023-04-30T00:36:14.890Z,10.94
2023-04-30T00:41:22.879Z,11.07
2023-04-30T00:46:29.144Z,11.13
2023-04-30T00:51:35.725Z,11.13
2023-04-30T00:56:41.494Z,11.12
2023-04-30T01:01:47.283Z,11.08
2023-04-30T01:06:53.194Z,11.05
2023-04-30T01:12:09.397Z,11.01
2023-04-30T01:17:23.634Z,10.98
2023-04-30T01:22:43.685Z,11.01
2023-04-30T01:28:05.719Z,11.03
2023-04-30T01:33:11.833Z,11.02
2023-04-30T01:38:31.750Z,10.99
2023-04-30T01:43:46.254Z,10.94
2023-04-30T01:49:11.113Z,10.90
2023-04-30T01:54:27.152Z,10.91
2023-04-30T01:59:35.565Z,11.02
2023-04-30T02:04:41.269Z,11.22
2023-04-30T02:09:46.767Z,11.41
2023-04-30T02:14:52.635Z,11.54
2023-04-30T02:19:58.298Z,11.62
2023-04-30T02:25:04.802Z,11.74
2023-04-30T02:30:11.133Z,11.82
2023-04-30T02:35:16.856Z,11.84
2023-04-30T02:40:22.384Z,11.82
2023-04-30T02:45:28.178Z,11.85
2023-04-30T02:50:34.243Z,11.90
2023-04-30T02:55:39.576Z,11.89
2023-04-30T03:00:45.057Z,11.84
2023-04-30T03:05:50.557Z,11.80
2023-04-30T03:10:56.276Z,11.74
2023-04-30T03:16:04.665Z,11.68
2023-04-30T03:21:10.284Z,11.62
2023-04-30T03:26:15.734Z,11.57
2023-04-30T03:31:21.371Z,11.46
2023-04-30T03:36:27.505Z,11.41
2023-04-30T03:41:33.424Z,11.36
2023-04-30T03:46:43.771Z,11.21
2023-04-30T03:51:49.712Z,11.04
2023-04-30T03:56:56.125Z,10.94
2023-04-30T04:02:03.500Z,10.83
2023-04-30T04:07:11.383Z,10.77
2023-04-30T04:12:16.763Z,10.76
2023-04-30T04:17:22.386Z,10.73
2023-04-30T04:22:27.951Z,10.63
2023-04-30T04:27:33.810Z,10.53
2023-04-30T04:32:49.633Z,10.44
2023-04-30T04:37:55.582Z,10.41
2023-04-30T04:43:03.034Z,10.41
2023-04-30T04:48:08.926Z,10.46
2023-04-30T04:53:14.352Z,10.46
2023-04-30T04:58:19.724Z,10.49
2023-04-30T05:03:25.554Z,10.59
2023-04-30T05:08:31.377Z,10.68
2023-04-30T05:13:36.989Z,10.70
2023-04-30T05:18:42.402Z,10.73
2023-04-30T05:23:48.407Z,10.77
2023-04-30T05:28:53.755Z,10.79
2023-04-30T05:33:59.490Z,10.83
2023-04-30T05:39:05.389Z,10.90
2023-04-30T05:44:11.158Z,11.05
2023-04-30T05:49:16.587Z,11.27
2023-04-30T05:54:22.822Z,11.47
2023-04-30T05:59:28.606Z,11.62
2023-04-30T06:04:34.364Z,11.80
2023-04-30T06:09:40.030Z,11.83
2023-04-30T06:14:46.168Z,11.97
2023-04-30T06:19:52.330Z,12.51
2023-04-30T06:24:58.518Z,15.29
2023-04-30T06:30:04.649Z,16.27
2023-04-30T06:35:11.082Z,16.41
2023-04-30T06:40:16.575Z,19.78
2023-04-30T06:45:22.007Z,23.56
2023-04-30T06:50:27.573Z,26.05
2023-04-30T06:55:33.307Z,28.11
2023-04-30T07:00:38.796Z,29.54
2023-04-30T07:05:44.716Z,30.69
2023-04-30T07:10:50.730Z,31.57
2023-04-30T07:15:56.581Z,31.32
2023-04-30T07:21:02.421Z,30.75
2023-04-30T07:26:08.115Z,28.38
2023-04-30T07:31:15.919Z,27.82
2023-04-30T07:36:21.511Z,28.15
2023-04-30T07:41:27.357Z,27.51
2023-04-30T07:46:33.321Z,27.16
2023-04-30T07:51:39.561Z,27.96
2023-04-30T07:56:45.119Z,29.48
2023-04-30T08:01:50.578Z,30.41
2023-04-30T08:06:56.014Z,31.11
2023-04-30T08:12:04.863Z,30.92
2023-04-30T08:17:10.417Z,30.97
2023-04-30T08:22:16.419Z,31.37
2023-04-30T08:27:22.105Z,31.58
2023-04-30T08:32:28.211Z,31.23
2023-04-30T08:37:34.623Z,31.22
2023-04-30T08:42:46.177Z,31.00
2023-04-30T08:47:52.135Z,29.91
2023-04-30T08:52:58.753Z,29.55
2023-04-30T08:58:05.938Z,29.46
2023-04-30T09:03:11.613Z,29.84
2023-04-30T09:08:40.055Z,30.02
2023-04-30T09:13:44.076Z,30.06
2023-04-30T09:18:49.615Z,29.94
2023-04-30T09:23:58.690Z,29.81
2023-04-30T09:29:08.669Z,29.35
2023-04-30T09:34:15.234Z,29.04
2023-04-30T09:39:21.023Z,28.98
2023-04-30T09:44:32.690Z,28.89
2023-04-30T09:49:40.844Z,28.76
2023-04-30T09:54:47.767Z,28.78
2023-04-30T09:59:54.222Z,28.90
2023-04-30T10:05:01.392Z,29.35
2023-04-30T10:10:10.722Z,29.22
2023-04-30T10:15:19.027Z,29.31
2023-04-30T10:20:26.750Z,28.88
2023-04-30T10:25:33.976Z,28.85
2023-04-30T10:30:41.303Z,28.74
2023-04-30T10:35:51.103Z,28.34
2023-04-30T10:40:58.826Z,27.80
2023-04-30T10:46:05.129Z,27.81
2023-04-30T10:51:10.957Z,28.06
2023-04-30T10:56:31.387Z,28.00
2023-04-30T11:01:57.325Z,27.98
2023-04-30T11:07:10.078Z,27.33
2023-04-30T11:12:20.880Z,27.39
2023-04-30T11:17:28.956Z,27.34
2023-04-30T11:22:38.207Z,26.93
2023-04-30T11:27:45.327Z,26.76
2023-04-30T11:32:51.979Z,26.52
2023-04-30T11:38:00.773Z,26.13
2023-04-30T11:43:06.910Z,25.58
2023-04-30T11:48:14.776Z,25.01
2023-04-30T11:53:26.827Z,24.48
2023-04-30T11:58:38.710Z,24.01
2023-04-30T12:03:46.408Z,23.63
2023-04-30T12:08:55.099Z,23.24
2023-04-30T12:14:05.226Z,22.87
2023-04-30T12:19:11.459Z,22.51
2023-04-30T12:24:18.847Z,22.29
2023-04-30T12:29:25.834Z,22.03
2023-04-30T12:34:33.921Z,21.89
2023-04-30T12:39:39.868Z,21.92
2023-04-30T12:44:45.706Z,21.25
2023-04-30T12:49:51.730Z,21.10
2023-04-30T12:54:57.388Z,20.93
2023-04-30T13:00:05.860Z,20.66
2023-04-30T13:05:13.660Z,20.57
2023-04-30T13:10:20.181Z,20.49
2023-04-30T13:15:26.048Z,20.52
2023-04-30T13:20:31.574Z,20.34
2023-04-30T13:25:39.268Z,20.11
2023-04-30T13:30:45.261Z,19.92
2023-04-30T13:35:50.857Z,19.81
2023-04-30T13:40:56.677Z,19.68
2023-04-30T13:46:03.293Z,19.45
2023-04-30T13:51:08.873Z,19.29
2023-04-30T13:56:15.562Z,19.06
2023-04-30T14:01:21.432Z,19.01
2023-04-30T14:06:29.506Z,18.84
2023-04-30T14:11:35.401Z,18.77
2023-04-30T14:16:41.110Z,18.71
2023-04-30T14:21:46.776Z,18.48
2023-04-30T14:26:52.397Z,18.21
2023-04-30T14:31:58.184Z,18.00
2023-04-30T14:37:05.212Z,17.70
2023-04-30T14:42:11.095Z,17.53
2023-04-30T14:47:17.294Z,17.32
2023-04-30T14:52:23.220Z,17.17
2023-04-30T14:57:28.814Z,16.88
2023-04-30T15:02:34.510Z,16.69
2023-04-30T15:07:40.623Z,16.49
2023-04-30T15:12:46.394Z,16.30
2023-04-30T15:17:52.894Z,16.27
2023-04-30T15:22:58.505Z,16.14
2023-04-30T15:28:05.006Z,16.02
2023-04-30T15:33:10.592Z,15.89
2023-04-30T15:38:16.523Z,15.71
2023-04-30T15:43:23.536Z,15.58
2023-04-30T15:48:29.102Z,15.50
2023-04-30T15:53:34.733Z,15.39
2023-04-30T15:58:40.676Z,15.24
2023-04-30T16:03:46.593Z,15.02
2023-04-30T16:08:52.557Z,14.90
2023-04-30T16:13:58.037Z,14.76
2023-04-30T16:19:03.886Z,14.61
2023-04-30T16:24:10.501Z,14.41
2023-04-30T16:29:16.150Z,14.29
2023-04-30T16:34:22.253Z,14.15
2023-04-30T16:39:27.782Z,14.01
2023-04-30T16:44:33.527Z,13.89
2023-04-30T16:49:39.989Z,13.73
2023-04-30T16:54:45.987Z,13.59
2023-04-30T16:59:51.539Z,13.45
2023-04-30T17:04:57.651Z,13.32
2023-04-30T17:10:05.468Z,13.17
2023-04-30T17:15:12.028Z,13.01
2023-04-30T17:20:17.806Z,12.84
2023-04-30T17:25:23.980Z,12.68
2023-04-30T17:30:29.679Z,12.50
2023-04-30T17:35:35.292Z,12.31
2023-04-30T17:40:40.780Z,12.15
2023-04-30T17:45:46.503Z,11.96
2023-04-30T17:50:52.004Z,11.75
2023-04-30T17:55:59.899Z,11.53
2023-04-30T18:01:06.258Z,11.32
2023-04-30T18:06:11.758Z,11.09
2023-04-30T18:11:17.474Z,10.85
2023-04-30T18:16:22.916Z,10.67
2023-04-30T18:21:28.408Z,10.44
2023-04-30T18:26:33.818Z,10.21
2023-04-30T18:31:39.725Z,9.97
2023-04-30T18:36:45.266Z,9.74
2023-04-30T18:41:51.020Z,9.54
2023-04-30T18:46:57.321Z,9.36
2023-04-30T18:52:02.860Z,9.16
2023-04-30T18:57:12.397Z,8.96
2023-04-30T19:02:18.138Z,8.81
2023-04-30T19:07:24.766Z,8.67
2023-04-30T19:12:30.723Z,8.51
2023-04-30T19:17:36.501Z,8.32
2023-04-30T19:22:42.649Z,8.09
2023-04-30T19:27:48.602Z,7.89
2023-04-30T19:32:54.152Z,7.68
2023-04-30T19:38:00.100Z,7.46
2023-04-30T19:43:07.634Z,7.24
2023-04-30T19:48:23.223Z,7.05
2023-04-30T19:53:29.139Z,6.95
2023-04-30T19:58:34.856Z,6.86
2023-04-30T20:03:49.851Z,6.71
2023-04-30T20:09:18.076Z,6.55
2023-04-30T20:14:25.134Z,6.38
2023-04-30T20:19:32.183Z,6.24
2023-04-30T20:24:37.753Z,6.07
2023-04-30T20:29:43.407Z,5.89
2023-04-30T20:34:49.276Z,5.74
2023-04-30T20:39:54.863Z,5.58
2023-04-30T20:45:01.958Z,5.42
2023-04-30T20:50:15.362Z,5.33
2023-04-30T20:55:21.446Z,5.21
2023-04-30T21:00:27.773Z,5.09
2023-04-30T21:05:34.306Z,5.04
2023-04-30T21:10:41.120Z,5.18
2023-04-30T21:15:48.605Z,5.28
2023-04-30T21:20:56.389Z,5.23
2023-04-30T21:26:02.646Z,5.20
2023-04-30T21:31:09.283Z,5.06
2023-04-30T21:36:16.502Z,4.88
2023-04-30T21:41:24.663Z,4.70
2023-04-30T21:46:30.219Z,4.51
2023-04-30T21:51:37.224Z,4.34
2023-04-30T21:56:42.713Z,4.21
2023-04-30T22:01:48.404Z,4.11
2023-04-30T22:06:54.380Z,4.10
2023-04-30T22:12:00.235Z,4.18
2023-04-30T22:17:06.179Z,4.23
2023-04-30T22:22:11.996Z,4.23
2023-04-30T22:27:17.903Z,4.22
2023-04-30T22:32:23.604Z,4.10
2023-04-30T22:37:29.894Z,4.00
2023-04-30T22:42:35.895Z,3.86
2023-04-30T22:47:42.187Z,3.70
2023-04-30T22:52:48.553Z,3.55
2023-04-30T22:57:54.226Z,3.42
2023-04-30T23:03:00.281Z,3.36
2023-04-30T23:08:06.261Z,3.36
2023-04-30T23:13:11.827Z,3.38
2023-04-30T23:18:17.844Z,3.37
2023-04-30T23:23:23.494Z,3.31
2023-04-30T23:28:29.149Z,3.24
2023-04-30T23:33:34.891Z,3.16
2023-04-30T23:38:40.742Z,3.09
2023-04-30T23:43:46.620Z,2.97
2023-04-30T23:48:52.182Z,2.93
2023-04-30T23:53:57.645Z,2.94
2023-04-30T23:59:03.418Z,3.02
